Аэропорт: Уйташ. Махачкала

ICAO: URML

METAR:
2019-11-21 09:00:00
URML 210900Z 31004MPS 280V360 8000 -RA OVC011 03/02 Q1033 R32/290360 TEMPO 1500 RA BKN004 OVC011 RMK MT OBSC QFE774/1033
METAR:
2019-11-21 08:00:00
TAF URML 210800Z 2109/2118 06003G10MPS 3100 -RA BR OVC011 TEMPO 2109/2112 36003G10MPS 1500 RASN BR BKN004 OVC011 TEMPO 2112/2118 08004G10MPS 1000 SNRA BR OVC003